Overview Statistics Trail Chart Weather Telemetry Raw packets
 

This is the latest recevied weather packets stored in our database for station/object I8ZSE-10. If no packets are shown the sender has not sent any weather packets the latest 10 day(s).

<< 23 24 25 26 27 28 29 >>
Time Temp. Humidity Pressure Rain* Wind** Luminosity Snow
1788298230 25.56° C 54% - 0 mm - - -
1788297630 25.56° C 55% - 0 mm - - -
1788297030 26.11° C 54% - 0 mm - - -
1788296430 26.11° C 55% - 0 mm - - -
1788295830 25.56° C 55% - 0 mm - - -
1788295230 25.56° C 56% - 0 mm - - -
1788294632 26.11° C 55% - 0 mm - - -
1788294030 26.67° C 50% - 0 mm - - -
1788293430 26.67° C 50% - 0 mm - - -
1788292830 26.67° C 50% - 0 mm - - -
1788292230 26.67° C 53% - 0 mm - - -
1788291630 26.67° C 50% - 0 mm - - -
1788291030 27.78° C 47% - 0 mm - - -
1788290431 27.78° C 46% - 0 mm - - -
1788289831 27.78° C 46% - 0 mm - - -
1788289230 27.78° C 46% - 0 mm - - -
1788288630 27.78° C 46% - 0 mm - - -
1788288030 27.78° C 46% - 0 mm - - -
1788287430 27.22° C 46% - 0 mm - - -
1788286830 28.33° C 45% - 0 mm - - -
1788286230 27.22° C 46% - 0 mm - - -
1788285630 28.33° C 44% - 0 mm - - -
1788285030 28.33° C 43% - 0 mm - - -
1788284430 28.89° C 42% - 0 mm - - -
1788283830 28.89° C 42% - 0 mm - - -

* Rain latest hour (hover to see other rain measurements)
** Current wind speed in m/s (hover to see current wind gust speed)